sensor_id;sensor_type;location;lat;lon;timestamp;P1;durP1;ratioP1;P2;durP2;ratioP2
8297;SDS011;4187;42.778;23.242;2023-09-30T00:09:58;9.65;;;4.88;;
8297;SDS011;4187;42.778;23.242;2023-09-30T00:19:09;7.45;;;4.93;;
8297;SDS011;4187;42.778;23.242;2023-09-30T00:21:36;5.55;;;4.88;;
8297;SDS011;4187;42.778;23.242;2023-09-30T00:24:04;6.97;;;5.00;;
8297;SDS011;4187;42.778;23.242;2023-09-30T00:30:02;7.40;;;5.28;;
8297;SDS011;4187;42.778;23.242;2023-09-30T00:38:53;10.35;;;5.93;;
8297;SDS011;4187;42.778;23.242;2023-09-30T00:41:21;11.93;;;5.53;;
8297;SDS011;4187;42.778;23.242;2023-09-30T00:43:48;6.82;;;5.20;;
8297;SDS011;4187;42.778;23.242;2023-09-30T00:46:17;10.05;;;5.15;;
8297;SDS011;4187;42.778;23.242;2023-09-30T00:48:52;8.27;;;5.40;;
8297;SDS011;4187;42.778;23.242;2023-09-30T00:51:19;8.73;;;5.43;;
8297;SDS011;4187;42.778;23.242;2023-09-30T00:53:47;5.82;;;5.05;;
8297;SDS011;4187;42.778;23.242;2023-09-30T00:56:14;7.03;;;5.13;;
8297;SDS011;4187;42.778;23.242;2023-09-30T00:58:44;7.32;;;4.97;;
8297;SDS011;4187;42.778;23.242;2023-09-30T01:14:46;8.60;;;5.00;;
8297;SDS011;4187;42.778;23.242;2023-09-30T01:40:24;7.28;;;5.18;;
8297;SDS011;4187;42.778;23.242;2023-09-30T01:49:34;10.85;;;5.47;;
8297;SDS011;4187;42.778;23.242;2023-09-30T01:52:01;4.90;;;4.05;;
8297;SDS011;4187;42.778;23.242;2023-09-30T01:54:28;9.73;;;5.43;;
8297;SDS011;4187;42.778;23.242;2023-09-30T02:07:02;8.52;;;5.03;;
8297;SDS011;4187;42.778;23.242;2023-09-30T02:16:12;15.23;;;5.40;;
8297;SDS011;4187;42.778;23.242;2023-09-30T02:18:39;6.43;;;5.75;;
8297;SDS011;4187;42.778;23.242;2023-09-30T02:31:13;7.63;;;5.47;;
8297;SDS011;4187;42.778;23.242;2023-09-30T02:33:42;5.60;;;4.65;;
8297;SDS011;4187;42.778;23.242;2023-09-30T02:39:31;7.38;;;5.30;;
8297;SDS011;4187;42.778;23.242;2023-09-30T03:13:09;10.18;;;5.93;;
8297;SDS011;4187;42.778;23.242;2023-09-30T03:28:28;10.38;;;6.03;;
8297;SDS011;4187;42.778;23.242;2023-09-30T03:30:55;11.13;;;6.05;;
8297;SDS011;4187;42.778;23.242;2023-09-30T03:33:22;7.95;;;6.45;;
8297;SDS011;4187;42.778;23.242;2023-09-30T03:49:18;6.57;;;5.85;;
8297;SDS011;4187;42.778;23.242;2023-09-30T03:58:29;8.18;;;5.53;;
8297;SDS011;4187;42.778;23.242;2023-09-30T04:00:56;8.32;;;5.63;;
8297;SDS011;4187;42.778;23.242;2023-09-30T04:03:23;6.80;;;5.80;;
8297;SDS011;4187;42.778;23.242;2023-09-30T04:05:51;8.50;;;5.97;;
8297;SDS011;4187;42.778;23.242;2023-09-30T04:08:18;7.68;;;6.25;;
8297;SDS011;4187;42.778;23.242;2023-09-30T04:10:47;9.70;;;5.90;;
8297;SDS011;4187;42.778;23.242;2023-09-30T04:13:14;8.50;;;5.82;;
8297;SDS011;4187;42.778;23.242;2023-09-30T04:15:41;8.27;;;5.68;;
8297;SDS011;4187;42.778;23.242;2023-09-30T04:18:09;11.18;;;5.95;;
8297;SDS011;4187;42.778;23.242;2023-09-30T04:20:37;8.10;;;5.60;;
8297;SDS011;4187;42.778;23.242;2023-09-30T04:23:06;9.88;;;6.03;;
8297;SDS011;4187;42.778;23.242;2023-09-30T04:25:35;14.52;;;7.32;;
8297;SDS011;4187;42.778;23.242;2023-09-30T04:28:02;11.23;;;6.00;;
8297;SDS011;4187;42.778;23.242;2023-09-30T04:30:29;10.13;;;6.13;;
8297;SDS011;4187;42.778;23.242;2023-09-30T04:32:57;10.45;;;6.43;;
8297;SDS011;4187;42.778;23.242;2023-09-30T04:35:24;11.32;;;6.35;;
8297;SDS011;4187;42.778;23.242;2023-09-30T04:37:51;10.07;;;6.50;;
8297;SDS011;4187;42.778;23.242;2023-09-30T04:40:20;6.68;;;5.90;;
8297;SDS011;4187;42.778;23.242;2023-09-30T04:42:46;10.73;;;6.38;;
8297;SDS011;4187;42.778;23.242;2023-09-30T04:45:14;10.45;;;5.93;;
8297;SDS011;4187;42.778;23.242;2023-09-30T04:47:44;10.27;;;6.55;;
8297;SDS011;4187;42.778;23.242;2023-09-30T04:50:14;9.30;;;5.88;;
8297;SDS011;4187;42.778;23.242;2023-09-30T04:52:41;10.77;;;6.47;;
8297;SDS011;4187;42.778;23.242;2023-09-30T04:55:09;7.72;;;6.20;;
8297;SDS011;4187;42.778;23.242;2023-09-30T04:57:38;12.63;;;6.43;;
8297;SDS011;4187;42.778;23.242;2023-09-30T05:00:06;15.80;;;8.43;;
8297;SDS011;4187;42.778;23.242;2023-09-30T05:02:36;13.50;;;7.68;;
8297;SDS011;4187;42.778;23.242;2023-09-30T05:05:03;15.73;;;7.43;;
8297;SDS011;4187;42.778;23.242;2023-09-30T05:07:31;12.73;;;6.32;;
8297;SDS011;4187;42.778;23.242;2023-09-30T05:09:58;14.10;;;5.95;;
8297;SDS011;4187;42.778;23.242;2023-09-30T05:12:25;20.73;;;6.75;;
8297;SDS011;4187;42.778;23.242;2023-09-30T05:14:53;11.90;;;6.38;;
8297;SDS011;4187;42.778;23.242;2023-09-30T05:17:20;14.38;;;6.03;;
8297;SDS011;4187;42.778;23.242;2023-09-30T05:19:47;7.20;;;6.50;;
8297;SDS011;4187;42.778;23.242;2023-09-30T05:22:14;9.02;;;6.78;;
8297;SDS011;4187;42.778;23.242;2023-09-30T05:24:43;8.75;;;5.85;;
8297;SDS011;4187;42.778;23.242;2023-09-30T05:27:10;9.57;;;6.13;;
8297;SDS011;4187;42.778;23.242;2023-09-30T05:29:37;9.55;;;5.63;;
8297;SDS011;4187;42.778;23.242;2023-09-30T05:32:05;11.20;;;6.78;;
8297;SDS011;4187;42.778;23.242;2023-09-30T05:34:32;9.60;;;6.72;;
8297;SDS011;4187;42.778;23.242;2023-09-30T05:36:59;9.25;;;5.93;;
8297;SDS011;4187;42.778;23.242;2023-09-30T05:39:26;11.52;;;6.28;;
8297;SDS011;4187;42.778;23.242;2023-09-30T05:41:53;11.50;;;6.25;;
8297;SDS011;4187;42.778;23.242;2023-09-30T05:44:21;8.82;;;6.53;;
8297;SDS011;4187;42.778;23.242;2023-09-30T05:46:47;10.75;;;6.57;;
8297;SDS011;4187;42.778;23.242;2023-09-30T05:49:16;12.85;;;6.43;;
8297;SDS011;4187;42.778;23.242;2023-09-30T05:51:44;8.10;;;6.00;;
8297;SDS011;4187;42.778;23.242;2023-09-30T05:54:11;12.23;;;6.63;;
8297;SDS011;4187;42.778;23.242;2023-09-30T05:56:38;7.65;;;6.43;;
8297;SDS011;4187;42.778;23.242;2023-09-30T05:59:07;7.85;;;5.70;;
8297;SDS011;4187;42.778;23.242;2023-09-30T06:01:34;6.57;;;5.78;;
8297;SDS011;4187;42.778;23.242;2023-09-30T06:04:01;9.52;;;6.30;;
8297;SDS011;4187;42.778;23.242;2023-09-30T06:06:31;14.02;;;6.22;;
8297;SDS011;4187;42.778;23.242;2023-09-30T06:08:58;9.63;;;6.32;;
8297;SDS011;4187;42.778;23.242;2023-09-30T06:11:25;6.68;;;5.05;;
8297;SDS011;4187;42.778;23.242;2023-09-30T06:13:53;6.57;;;5.63;;
8297;SDS011;4187;42.778;23.242;2023-09-30T06:16:20;12.07;;;5.45;;
8297;SDS011;4187;42.778;23.242;2023-09-30T06:18:48;7.68;;;5.22;;
8297;SDS011;4187;42.778;23.242;2023-09-30T06:21:15;10.02;;;5.22;;
8297;SDS011;4187;42.778;23.242;2023-09-30T06:23:44;17.23;;;8.93;;
8297;SDS011;4187;42.778;23.242;2023-09-30T06:26:11;10.10;;;5.40;;
8297;SDS011;4187;42.778;23.242;2023-09-30T06:28:38;12.70;;;5.20;;
8297;SDS011;4187;42.778;23.242;2023-09-30T06:31:06;26.25;;;7.57;;
8297;SDS011;4187;42.778;23.242;2023-09-30T06:33:34;29.88;;;7.15;;
8297;SDS011;4187;42.778;23.242;2023-09-30T06:36:01;16.42;;;5.40;;
8297;SDS011;4187;42.778;23.242;2023-09-30T06:38:28;26.50;;;6.07;;
8297;SDS011;4187;42.778;23.242;2023-09-30T06:40:56;27.67;;;7.55;;
8297;SDS011;4187;42.778;23.242;2023-09-30T06:43:23;30.88;;;6.57;;
8297;SDS011;4187;42.778;23.242;2023-09-30T06:45:50;25.20;;;6.78;;
8297;SDS011;4187;42.778;23.242;2023-09-30T06:48:16;14.55;;;6.13;;
8297;SDS011;4187;42.778;23.242;2023-09-30T06:50:44;26.75;;;5.65;;
8297;SDS011;4187;42.778;23.242;2023-09-30T06:53:11;14.65;;;5.88;;
8297;SDS011;4187;42.778;23.242;2023-09-30T06:55:38;23.88;;;6.53;;
8297;SDS011;4187;42.778;23.242;2023-09-30T06:58:07;11.32;;;5.43;;
8297;SDS011;4187;42.778;23.242;2023-09-30T07:00:35;14.75;;;5.85;;
8297;SDS011;4187;42.778;23.242;2023-09-30T07:03:02;11.65;;;5.22;;
8297;SDS011;4187;42.778;23.242;2023-09-30T07:05:30;18.70;;;6.90;;
8297;SDS011;4187;42.778;23.242;2023-09-30T07:07:57;34.20;;;10.88;;
8297;SDS011;4187;42.778;23.242;2023-09-30T07:10:24;19.58;;;5.93;;
8297;SDS011;4187;42.778;23.242;2023-09-30T07:12:51;18.33;;;5.25;;
8297;SDS011;4187;42.778;23.242;2023-09-30T07:15:19;8.43;;;4.55;;
8297;SDS011;4187;42.778;23.242;2023-09-30T07:17:46;9.30;;;5.20;;
8297;SDS011;4187;42.778;23.242;2023-09-30T07:20:13;10.60;;;5.72;;
8297;SDS011;4187;42.778;23.242;2023-09-30T07:22:42;17.20;;;5.40;;
8297;SDS011;4187;42.778;23.242;2023-09-30T07:25:08;13.57;;;5.28;;
8297;SDS011;4187;42.778;23.242;2023-09-30T07:27:35;14.27;;;5.07;;
8297;SDS011;4187;42.778;23.242;2023-09-30T07:30:02;15.50;;;5.57;;
8297;SDS011;4187;42.778;23.242;2023-09-30T07:32:33;14.90;;;5.18;;
8297;SDS011;4187;42.778;23.242;2023-09-30T07:35:17;12.43;;;5.55;;
8297;SDS011;4187;42.778;23.242;2023-09-30T07:37:47;24.00;;;12.82;;
8297;SDS011;4187;42.778;23.242;2023-09-30T07:40:17;22.70;;;6.55;;
8297;SDS011;4187;42.778;23.242;2023-09-30T07:42:43;13.13;;;6.85;;
8297;SDS011;4187;42.778;23.242;2023-09-30T07:45:10;15.55;;;5.05;;
8297;SDS011;4187;42.778;23.242;2023-09-30T07:47:43;13.75;;;4.95;;
8297;SDS011;4187;42.778;23.242;2023-09-30T07:50:11;11.90;;;4.43;;
8297;SDS011;4187;42.778;23.242;2023-09-30T07:52:38;14.23;;;5.18;;
8297;SDS011;4187;42.778;23.242;2023-09-30T07:55:07;12.63;;;5.50;;
8297;SDS011;4187;42.778;23.242;2023-09-30T07:57:34;9.95;;;4.88;;
8297;SDS011;4187;42.778;23.242;2023-09-30T08:00:02;10.35;;;4.57;;
8297;SDS011;4187;42.778;23.242;2023-09-30T08:02:33;10.35;;;4.85;;
8297;SDS011;4187;42.778;23.242;2023-09-30T08:05:01;13.65;;;5.35;;
8297;SDS011;4187;42.778;23.242;2023-09-30T08:07:28;12.93;;;5.18;;
8297;SDS011;4187;42.778;23.242;2023-09-30T08:09:55;22.23;;;5.22;;
8297;SDS011;4187;42.778;23.242;2023-09-30T08:12:22;13.93;;;5.00;;
8297;SDS011;4187;42.778;23.242;2023-09-30T08:14:49;15.32;;;4.60;;
8297;SDS011;4187;42.778;23.242;2023-09-30T08:17:16;16.05;;;4.97;;
8297;SDS011;4187;42.778;23.242;2023-09-30T08:19:43;18.77;;;5.40;;
8297;SDS011;4187;42.778;23.242;2023-09-30T08:22:13;16.52;;;5.15;;
8297;SDS011;4187;42.778;23.242;2023-09-30T08:24:40;16.63;;;5.95;;
8297;SDS011;4187;42.778;23.242;2023-09-30T08:27:07;18.38;;;5.40;;
8297;SDS011;4187;42.778;23.242;2023-09-30T08:29:34;17.83;;;5.75;;
8297;SDS011;4187;42.778;23.242;2023-09-30T08:32:02;8.68;;;5.10;;
8297;SDS011;4187;42.778;23.242;2023-09-30T08:34:29;12.40;;;5.65;;
8297;SDS011;4187;42.778;23.242;2023-09-30T08:36:57;13.85;;;5.25;;
8297;SDS011;4187;42.778;23.242;2023-09-30T08:39:26;15.35;;;5.57;;
8297;SDS011;4187;42.778;23.242;2023-09-30T08:41:54;9.52;;;5.47;;
8297;SDS011;4187;42.778;23.242;2023-09-30T08:44:21;11.15;;;6.03;;
8297;SDS011;4187;42.778;23.242;2023-09-30T08:46:49;11.95;;;6.10;;
8297;SDS011;4187;42.778;23.242;2023-09-30T08:49:17;12.00;;;7.57;;
8297;SDS011;4187;42.778;23.242;2023-09-30T08:51:46;9.85;;;6.78;;
8297;SDS011;4187;42.778;23.242;2023-09-30T08:54:15;11.95;;;7.40;;
8297;SDS011;4187;42.778;23.242;2023-09-30T08:56:44;9.48;;;7.35;;
8297;SDS011;4187;42.778;23.242;2023-09-30T08:59:14;10.38;;;7.30;;
8297;SDS011;4187;42.778;23.242;2023-09-30T09:01:42;10.65;;;6.95;;
8297;SDS011;4187;42.778;23.242;2023-09-30T09:04:09;8.35;;;6.07;;
8297;SDS011;4187;42.778;23.242;2023-09-30T09:06:36;11.80;;;6.00;;
8297;SDS011;4187;42.778;23.242;2023-09-30T09:09:13;8.23;;;5.43;;
8297;SDS011;4187;42.778;23.242;2023-09-30T09:11:40;19.85;;;6.47;;
8297;SDS011;4187;42.778;23.242;2023-09-30T09:14:09;8.23;;;5.78;;
8297;SDS011;4187;42.778;23.242;2023-09-30T09:16:35;9.60;;;5.35;;
8297;SDS011;4187;42.778;23.242;2023-09-30T09:19:12;11.07;;;5.22;;
8297;SDS011;4187;42.778;23.242;2023-09-30T09:21:52;7.55;;;5.30;;
8297;SDS011;4187;42.778;23.242;2023-09-30T09:24:29;13.98;;;5.47;;
8297;SDS011;4187;42.778;23.242;2023-09-30T09:27:04;8.55;;;5.10;;
8297;SDS011;4187;42.778;23.242;2023-09-30T09:29:33;9.30;;;5.30;;
8297;SDS011;4187;42.778;23.242;2023-09-30T09:32:06;7.53;;;5.43;;
8297;SDS011;4187;42.778;23.242;2023-09-30T09:34:34;8.10;;;4.80;;
8297;SDS011;4187;42.778;23.242;2023-09-30T09:37:12;11.73;;;4.53;;
8297;SDS011;4187;42.778;23.242;2023-09-30T09:39:40;11.55;;;5.20;;
8297;SDS011;4187;42.778;23.242;2023-09-30T09:42:22;7.60;;;4.38;;
8297;SDS011;4187;42.778;23.242;2023-09-30T09:44:52;9.45;;;5.38;;
8297;SDS011;4187;42.778;23.242;2023-09-30T09:47:22;5.38;;;4.75;;
8297;SDS011;4187;42.778;23.242;2023-09-30T09:49:50;10.20;;;5.90;;
8297;SDS011;4187;42.778;23.242;2023-09-30T09:52:18;12.00;;;4.93;;
8297;SDS011;4187;42.778;23.242;2023-09-30T09:54:47;7.50;;;4.35;;
8297;SDS011;4187;42.778;23.242;2023-09-30T09:57:16;11.88;;;4.53;;
8297;SDS011;4187;42.778;23.242;2023-09-30T09:59:44;8.00;;;4.22;;
8297;SDS011;4187;42.778;23.242;2023-09-30T10:02:14;13.45;;;4.43;;
8297;SDS011;4187;42.778;23.242;2023-09-30T10:04:43;8.60;;;4.18;;
8297;SDS011;4187;42.778;23.242;2023-09-30T10:07:11;10.23;;;4.30;;
8297;SDS011;4187;42.778;23.242;2023-09-30T10:09:43;8.43;;;4.15;;
8297;SDS011;4187;42.778;23.242;2023-09-30T10:12:14;6.18;;;4.32;;
8297;SDS011;4187;42.778;23.242;2023-09-30T10:14:41;8.82;;;4.60;;
8297;SDS011;4187;42.778;23.242;2023-09-30T10:17:09;7.53;;;4.50;;
8297;SDS011;4187;42.778;23.242;2023-09-30T10:19:37;8.93;;;4.28;;
8297;SDS011;4187;42.778;23.242;2023-09-30T10:22:31;13.80;;;4.65;;
8297;SDS011;4187;42.778;23.242;2023-09-30T10:24:59;9.20;;;4.40;;
8297;SDS011;4187;42.778;23.242;2023-09-30T10:30:13;14.07;;;4.25;;
8297;SDS011;4187;42.778;23.242;2023-09-30T10:35:45;7.65;;;4.32;;
8297;SDS011;4187;42.778;23.242;2023-09-30T10:41:08;10.85;;;4.93;;
8297;SDS011;4187;42.778;23.242;2023-09-30T10:43:37;9.45;;;4.63;;
8297;SDS011;4187;42.778;23.242;2023-09-30T10:51:45;6.88;;;4.03;;
8297;SDS011;4187;42.778;23.242;2023-09-30T10:54:12;8.07;;;4.35;;
8297;SDS011;4187;42.778;23.242;2023-09-30T10:56:39;6.93;;;3.88;;
8297;SDS011;4187;42.778;23.242;2023-09-30T10:59:06;4.78;;;4.25;;
8297;SDS011;4187;42.778;23.242;2023-09-30T11:01:34;6.18;;;4.03;;
8297;SDS011;4187;42.778;23.242;2023-09-30T11:04:02;6.30;;;3.88;;
8297;SDS011;4187;42.778;23.242;2023-09-30T11:06:31;8.43;;;4.32;;
8297;SDS011;4187;42.778;23.242;2023-09-30T11:09:00;6.75;;;4.28;;
8297;SDS011;4187;42.778;23.242;2023-09-30T11:11:35;7.35;;;3.90;;
8297;SDS011;4187;42.778;23.242;2023-09-30T11:14:02;6.15;;;3.70;;
8297;SDS011;4187;42.778;23.242;2023-09-30T11:16:39;8.45;;;4.03;;
8297;SDS011;4187;42.778;23.242;2023-09-30T11:19:08;5.78;;;3.70;;
8297;SDS011;4187;42.778;23.242;2023-09-30T11:21:35;8.48;;;4.60;;
8297;SDS011;4187;42.778;23.242;2023-09-30T11:24:04;9.95;;;4.55;;
8297;SDS011;4187;42.778;23.242;2023-09-30T11:26:32;8.02;;;4.22;;
8297;SDS011;4187;42.778;23.242;2023-09-30T11:29:08;8.98;;;4.05;;
8297;SDS011;4187;42.778;23.242;2023-09-30T11:31:37;5.28;;;3.50;;
8297;SDS011;4187;42.778;23.242;2023-09-30T11:34:04;7.35;;;4.50;;
8297;SDS011;4187;42.778;23.242;2023-09-30T11:36:34;4.05;;;3.50;;
8297;SDS011;4187;42.778;23.242;2023-09-30T11:39:01;10.05;;;3.95;;
8297;SDS011;4187;42.778;23.242;2023-09-30T11:41:33;8.40;;;3.90;;
8297;SDS011;4187;42.778;23.242;2023-09-30T11:44:05;6.60;;;3.55;;
8297;SDS011;4187;42.778;23.242;2023-09-30T11:46:46;7.47;;;4.07;;
8297;SDS011;4187;42.778;23.242;2023-09-30T11:49:23;7.40;;;3.47;;
8297;SDS011;4187;42.778;23.242;2023-09-30T11:51:52;5.68;;;3.60;;
8297;SDS011;4187;42.778;23.242;2023-09-30T11:54:20;7.78;;;3.97;;
8297;SDS011;4187;42.778;23.242;2023-09-30T11:56:48;7.22;;;3.13;;
8297;SDS011;4187;42.778;23.242;2023-09-30T11:59:15;6.78;;;3.55;;
8297;SDS011;4187;42.778;23.242;2023-09-30T12:01:44;7.40;;;3.60;;
8297;SDS011;4187;42.778;23.242;2023-09-30T12:04:14;8.25;;;4.13;;
8297;SDS011;4187;42.778;23.242;2023-09-30T12:06:42;6.57;;;4.18;;
8297;SDS011;4187;42.778;23.242;2023-09-30T12:09:09;7.40;;;3.72;;
8297;SDS011;4187;42.778;23.242;2023-09-30T12:11:40;7.55;;;3.42;;
8297;SDS011;4187;42.778;23.242;2023-09-30T12:14:12;10.52;;;4.28;;
8297;SDS011;4187;42.778;23.242;2023-09-30T12:16:39;6.82;;;3.67;;
8297;SDS011;4187;42.778;23.242;2023-09-30T12:19:06;5.28;;;3.65;;
8297;SDS011;4187;42.778;23.242;2023-09-30T12:21:34;6.68;;;3.30;;
8297;SDS011;4187;42.778;23.242;2023-09-30T12:24:01;6.10;;;4.25;;
8297;SDS011;4187;42.778;23.242;2023-09-30T12:26:29;9.45;;;3.83;;
8297;SDS011;4187;42.778;23.242;2023-09-30T12:28:58;6.53;;;3.92;;
8297;SDS011;4187;42.778;23.242;2023-09-30T12:31:25;6.90;;;3.67;;
8297;SDS011;4187;42.778;23.242;2023-09-30T12:33:52;9.30;;;3.97;;
8297;SDS011;4187;42.778;23.242;2023-09-30T12:36:19;5.95;;;3.88;;
8297;SDS011;4187;42.778;23.242;2023-09-30T12:38:47;5.80;;;4.40;;
8297;SDS011;4187;42.778;23.242;2023-09-30T12:41:14;5.20;;;4.10;;
8297;SDS011;4187;42.778;23.242;2023-09-30T12:43:44;4.95;;;3.75;;
8297;SDS011;4187;42.778;23.242;2023-09-30T12:46:12;5.30;;;3.38;;
8297;SDS011;4187;42.778;23.242;2023-09-30T12:48:39;4.88;;;3.42;;
8297;SDS011;4187;42.778;23.242;2023-09-30T12:51:06;5.57;;;3.85;;
8297;SDS011;4187;42.778;23.242;2023-09-30T12:53:34;8.38;;;4.18;;
8297;SDS011;4187;42.778;23.242;2023-09-30T12:56:01;8.43;;;4.15;;
8297;SDS011;4187;42.778;23.242;2023-09-30T12:58:27;9.65;;;5.70;;
8297;SDS011;4187;42.778;23.242;2023-09-30T13:00:54;8.52;;;4.13;;
8297;SDS011;4187;42.778;23.242;2023-09-30T13:03:23;6.75;;;3.75;;
8297;SDS011;4187;42.778;23.242;2023-09-30T13:05:49;5.32;;;4.10;;
8297;SDS011;4187;42.778;23.242;2023-09-30T13:08:16;8.40;;;3.83;;
8297;SDS011;4187;42.778;23.242;2023-09-30T13:10:43;5.30;;;4.35;;
8297;SDS011;4187;42.778;23.242;2023-09-30T13:13:10;6.30;;;4.28;;
8297;SDS011;4187;42.778;23.242;2023-09-30T13:15:37;5.60;;;4.25;;
8297;SDS011;4187;42.778;23.242;2023-09-30T13:18:06;5.03;;;3.95;;
8297;SDS011;4187;42.778;23.242;2023-09-30T13:20:34;4.10;;;3.80;;
8297;SDS011;4187;42.778;23.242;2023-09-30T13:23:01;9.23;;;4.57;;
8297;SDS011;4187;42.778;23.242;2023-09-30T13:25:28;5.50;;;3.92;;
8297;SDS011;4187;42.778;23.242;2023-09-30T13:27:55;5.18;;;4.03;;
8297;SDS011;4187;42.778;23.242;2023-09-30T13:30:23;11.00;;;4.60;;
8297;SDS011;4187;42.778;23.242;2023-09-30T13:32:51;9.65;;;4.93;;
8297;SDS011;4187;42.778;23.242;2023-09-30T13:35:18;8.57;;;4.95;;
8297;SDS011;4187;42.778;23.242;2023-09-30T13:37:47;6.20;;;4.05;;
8297;SDS011;4187;42.778;23.242;2023-09-30T13:40:14;6.50;;;3.65;;
8297;SDS011;4187;42.778;23.242;2023-09-30T13:42:41;8.13;;;3.58;;
8297;SDS011;4187;42.778;23.242;2023-09-30T13:45:08;7.53;;;5.15;;
8297;SDS011;4187;42.778;23.242;2023-09-30T13:47:35;11.07;;;6.00;;
8297;SDS011;4187;42.778;23.242;2023-09-30T13:50:03;9.07;;;4.95;;
8297;SDS011;4187;42.778;23.242;2023-09-30T13:52:32;6.97;;;4.05;;
8297;SDS011;4187;42.778;23.242;2023-09-30T13:55:00;10.75;;;4.35;;
8297;SDS011;4187;42.778;23.242;2023-09-30T13:57:28;5.10;;;4.60;;
8297;SDS011;4187;42.778;23.242;2023-09-30T13:59:55;9.32;;;5.68;;
8297;SDS011;4187;42.778;23.242;2023-09-30T14:02:22;8.15;;;4.35;;
8297;SDS011;4187;42.778;23.242;2023-09-30T14:04:49;9.75;;;4.13;;
8297;SDS011;4187;42.778;23.242;2023-09-30T14:07:15;8.20;;;4.72;;
8297;SDS011;4187;42.778;23.242;2023-09-30T14:09:43;7.32;;;4.85;;
8297;SDS011;4187;42.778;23.242;2023-09-30T14:12:12;11.18;;;4.85;;
8297;SDS011;4187;42.778;23.242;2023-09-30T14:14:38;10.20;;;3.90;;
8297;SDS011;4187;42.778;23.242;2023-09-30T14:17:05;6.88;;;4.25;;
8297;SDS011;4187;42.778;23.242;2023-09-30T14:19:35;4.38;;;3.95;;
8297;SDS011;4187;42.778;23.242;2023-09-30T14:22:03;8.50;;;4.13;;
8297;SDS011;4187;42.778;23.242;2023-09-30T14:24:31;9.20;;;4.05;;
8297;SDS011;4187;42.778;23.242;2023-09-30T14:26:58;9.77;;;5.45;;
8297;SDS011;4187;42.778;23.242;2023-09-30T14:29:27;8.82;;;5.05;;
8297;SDS011;4187;42.778;23.242;2023-09-30T14:31:54;7.43;;;6.18;;
8297;SDS011;4187;42.778;23.242;2023-09-30T14:34:21;15.00;;;5.75;;
8297;SDS011;4187;42.778;23.242;2023-09-30T14:36:48;10.90;;;6.70;;
8297;SDS011;4187;42.778;23.242;2023-09-30T14:39:15;10.85;;;6.88;;
8297;SDS011;4187;42.778;23.242;2023-09-30T14:41:42;9.07;;;5.85;;
8297;SDS011;4187;42.778;23.242;2023-09-30T14:44:09;9.48;;;5.18;;
8297;SDS011;4187;42.778;23.242;2023-09-30T14:46:39;7.75;;;4.38;;
8297;SDS011;4187;42.778;23.242;2023-09-30T14:49:06;14.52;;;5.40;;
8297;SDS011;4187;42.778;23.242;2023-09-30T14:51:33;7.18;;;4.75;;
8297;SDS011;4187;42.778;23.242;2023-09-30T14:54:00;9.35;;;5.35;;
8297;SDS011;4187;42.778;23.242;2023-09-30T14:56:27;8.38;;;4.45;;
8297;SDS011;4187;42.778;23.242;2023-09-30T14:58:54;6.63;;;4.05;;
8297;SDS011;4187;42.778;23.242;2023-09-30T15:01:21;6.63;;;3.60;;
8297;SDS011;4187;42.778;23.242;2023-09-30T15:03:50;7.05;;;3.92;;
8297;SDS011;4187;42.778;23.242;2023-09-30T15:06:17;4.72;;;3.92;;
8297;SDS011;4187;42.778;23.242;2023-09-30T15:08:43;8.80;;;4.25;;
8297;SDS011;4187;42.778;23.242;2023-09-30T15:11:13;6.55;;;3.42;;
8297;SDS011;4187;42.778;23.242;2023-09-30T15:13:41;6.93;;;4.22;;
8297;SDS011;4187;42.778;23.242;2023-09-30T15:16:14;8.70;;;4.07;;
8297;SDS011;4187;42.778;23.242;2023-09-30T15:18:42;7.18;;;4.13;;
8297;SDS011;4187;42.778;23.242;2023-09-30T15:21:10;6.15;;;3.92;;
8297;SDS011;4187;42.778;23.242;2023-09-30T15:23:37;7.70;;;3.70;;
8297;SDS011;4187;42.778;23.242;2023-09-30T15:26:04;7.78;;;3.88;;
8297;SDS011;4187;42.778;23.242;2023-09-30T15:28:31;6.68;;;4.03;;
8297;SDS011;4187;42.778;23.242;2023-09-30T15:30:58;11.85;;;4.07;;
8297;SDS011;4187;42.778;23.242;2023-09-30T15:33:26;6.68;;;4.00;;
8297;SDS011;4187;42.778;23.242;2023-09-30T15:35:54;10.55;;;4.53;;
8297;SDS011;4187;42.778;23.242;2023-09-30T15:38:22;11.48;;;4.07;;
8297;SDS011;4187;42.778;23.242;2023-09-30T15:40:52;4.68;;;3.83;;
8297;SDS011;4187;42.778;23.242;2023-09-30T15:43:22;4.57;;;3.65;;
8297;SDS011;4187;42.778;23.242;2023-09-30T15:45:49;6.72;;;4.07;;
8297;SDS011;4187;42.778;23.242;2023-09-30T15:48:16;8.05;;;4.20;;
8297;SDS011;4187;42.778;23.242;2023-09-30T15:50:43;6.57;;;4.10;;
8297;SDS011;4187;42.778;23.242;2023-09-30T15:53:10;5.15;;;4.32;;
8297;SDS011;4187;42.778;23.242;2023-09-30T15:55:38;7.32;;;3.70;;
8297;SDS011;4187;42.778;23.242;2023-09-30T15:58:06;11.27;;;4.20;;
8297;SDS011;4187;42.778;23.242;2023-09-30T16:00:34;7.88;;;3.83;;
8297;SDS011;4187;42.778;23.242;2023-09-30T16:03:03;6.25;;;4.50;;
8297;SDS011;4187;42.778;23.242;2023-09-30T16:05:31;6.80;;;4.55;;
8297;SDS011;4187;42.778;23.242;2023-09-30T16:07:58;5.53;;;4.30;;
8297;SDS011;4187;42.778;23.242;2023-09-30T16:10:25;7.80;;;4.40;;
8297;SDS011;4187;42.778;23.242;2023-09-30T16:12:53;8.20;;;4.50;;
8297;SDS011;4187;42.778;23.242;2023-09-30T16:15:20;5.93;;;4.28;;
8297;SDS011;4187;42.778;23.242;2023-09-30T16:17:47;19.40;;;4.40;;
8297;SDS011;4187;42.778;23.242;2023-09-30T16:20:15;10.05;;;4.90;;
8297;SDS011;4187;42.778;23.242;2023-09-30T16:22:43;8.93;;;4.80;;
8297;SDS011;4187;42.778;23.242;2023-09-30T16:25:10;8.65;;;4.20;;
8297;SDS011;4187;42.778;23.242;2023-09-30T16:27:37;8.13;;;4.22;;
8297;SDS011;4187;42.778;23.242;2023-09-30T16:30:06;9.15;;;4.35;;
8297;SDS011;4187;42.778;23.242;2023-09-30T16:32:33;6.55;;;4.88;;
8297;SDS011;4187;42.778;23.242;2023-09-30T16:35:02;10.25;;;4.57;;
8297;SDS011;4187;42.778;23.242;2023-09-30T16:37:30;4.78;;;4.25;;
8297;SDS011;4187;42.778;23.242;2023-09-30T16:39:57;10.38;;;4.50;;
8297;SDS011;4187;42.778;23.242;2023-09-30T16:42:23;6.50;;;4.63;;
8297;SDS011;4187;42.778;23.242;2023-09-30T16:44:51;9.70;;;4.50;;
8297;SDS011;4187;42.778;23.242;2023-09-30T16:47:19;11.25;;;4.88;;
8297;SDS011;4187;42.778;23.242;2023-09-30T16:49:46;11.77;;;5.18;;
8297;SDS011;4187;42.778;23.242;2023-09-30T16:52:13;11.13;;;4.95;;
8297;SDS011;4187;42.778;23.242;2023-09-30T16:54:40;15.82;;;5.07;;
8297;SDS011;4187;42.778;23.242;2023-09-30T16:57:07;15.88;;;4.20;;
8297;SDS011;4187;42.778;23.242;2023-09-30T16:59:34;8.65;;;4.93;;
8297;SDS011;4187;42.778;23.242;2023-09-30T17:02:01;7.00;;;3.95;;
8297;SDS011;4187;42.778;23.242;2023-09-30T17:04:30;9.68;;;4.75;;
8297;SDS011;4187;42.778;23.242;2023-09-30T17:06:57;9.75;;;4.93;;
8297;SDS011;4187;42.778;23.242;2023-09-30T17:09:25;9.18;;;4.78;;
8297;SDS011;4187;42.778;23.242;2023-09-30T17:11:51;7.90;;;4.70;;
8297;SDS011;4187;42.778;23.242;2023-09-30T17:14:19;11.75;;;4.60;;
8297;SDS011;4187;42.778;23.242;2023-09-30T17:16:46;9.02;;;4.88;;
8297;SDS011;4187;42.778;23.242;2023-09-30T17:19:13;9.23;;;4.63;;
8297;SDS011;4187;42.778;23.242;2023-09-30T17:21:41;7.85;;;4.60;;
8297;SDS011;4187;42.778;23.242;2023-09-30T17:24:08;10.05;;;5.13;;
8297;SDS011;4187;42.778;23.242;2023-09-30T17:26:35;10.82;;;4.13;;
8297;SDS011;4187;42.778;23.242;2023-09-30T17:29:01;8.77;;;4.65;;
8297;SDS011;4187;42.778;23.242;2023-09-30T17:31:28;12.18;;;5.43;;
8297;SDS011;4187;42.778;23.242;2023-09-30T17:33:55;11.80;;;4.82;;
8297;SDS011;4187;42.778;23.242;2023-09-30T17:36:22;7.05;;;4.65;;
8297;SDS011;4187;42.778;23.242;2023-09-30T17:38:50;12.05;;;5.10;;
8297;SDS011;4187;42.778;23.242;2023-09-30T17:41:17;9.65;;;5.20;;
8297;SDS011;4187;42.778;23.242;2023-09-30T17:43:44;9.38;;;5.00;;
8297;SDS011;4187;42.778;23.242;2023-09-30T17:46:11;7.50;;;5.32;;
8297;SDS011;4187;42.778;23.242;2023-09-30T17:48:40;9.05;;;5.43;;
8297;SDS011;4187;42.778;23.242;2023-09-30T17:51:11;6.53;;;5.30;;
8297;SDS011;4187;42.778;23.242;2023-09-30T17:53:40;13.50;;;5.03;;
8297;SDS011;4187;42.778;23.242;2023-09-30T17:56:13;7.85;;;5.32;;
8297;SDS011;4187;42.778;23.242;2023-09-30T17:58:40;10.18;;;5.18;;